sensor_id;sensor_type;location;lat;lon;timestamp;P1;durP1;ratioP1;P2;durP2;ratioP2
23614;SDS011;11985;49.404;7.734;2023-03-20T00:03:10;19.35;;;12.05;;
23614;SDS011;11985;49.404;7.734;2023-03-20T00:08:12;20.75;;;11.65;;
23614;SDS011;11985;49.404;7.734;2023-03-20T00:13:16;23.73;;;12.48;;
23614;SDS011;11985;49.404;7.734;2023-03-20T00:18:25;22.73;;;12.85;;
23614;SDS011;11985;49.404;7.734;2023-03-20T00:23:26;21.88;;;12.10;;
23614;SDS011;11985;49.404;7.734;2023-03-20T00:28:31;19.63;;;11.70;;
23614;SDS011;11985;49.404;7.734;2023-03-20T00:33:39;23.48;;;12.10;;
23614;SDS011;11985;49.404;7.734;2023-03-20T00:38:41;21.60;;;12.52;;
23614;SDS011;11985;49.404;7.734;2023-03-20T00:43:44;24.20;;;14.07;;
23614;SDS011;11985;49.404;7.734;2023-03-20T00:48:47;27.52;;;13.70;;
23614;SDS011;11985;49.404;7.734;2023-03-20T00:53:49;29.00;;;15.52;;
23614;SDS011;11985;49.404;7.734;2023-03-20T00:58:52;26.73;;;14.57;;
23614;SDS011;11985;49.404;7.734;2023-03-20T01:03:54;24.30;;;14.90;;
23614;SDS011;11985;49.404;7.734;2023-03-20T01:08:55;27.20;;;14.63;;
23614;SDS011;11985;49.404;7.734;2023-03-20T01:13:59;29.58;;;15.13;;
23614;SDS011;11985;49.404;7.734;2023-03-20T01:19:01;33.03;;;16.25;;
23614;SDS011;11985;49.404;7.734;2023-03-20T01:24:02;27.20;;;15.55;;
23614;SDS011;11985;49.404;7.734;2023-03-20T01:29:09;26.30;;;14.50;;
23614;SDS011;11985;49.404;7.734;2023-03-20T01:34:18;26.50;;;15.63;;
23614;SDS011;11985;49.404;7.734;2023-03-20T01:39:20;29.52;;;16.30;;
23614;SDS011;11985;49.404;7.734;2023-03-20T01:44:25;30.25;;;16.83;;
23614;SDS011;11985;49.404;7.734;2023-03-20T01:55:08;37.13;;;17.85;;
23614;SDS011;11985;49.404;7.734;2023-03-20T02:00:13;36.00;;;17.80;;
23614;SDS011;11985;49.404;7.734;2023-03-20T02:05:16;35.00;;;17.92;;
23614;SDS011;11985;49.404;7.734;2023-03-20T02:10:20;37.88;;;17.80;;
23614;SDS011;11985;49.404;7.734;2023-03-20T02:15:25;32.22;;;17.52;;
23614;SDS011;11985;49.404;7.734;2023-03-20T02:20:30;36.88;;;17.50;;
23614;SDS011;11985;49.404;7.734;2023-03-20T02:25:52;36.40;;;17.90;;
23614;SDS011;11985;49.404;7.734;2023-03-20T02:31:38;38.60;;;18.92;;
23614;SDS011;11985;49.404;7.734;2023-03-20T02:37:12;36.63;;;18.23;;
23614;SDS011;11985;49.404;7.734;2023-03-20T02:42:30;38.97;;;18.48;;
23614;SDS011;11985;49.404;7.734;2023-03-20T02:47:40;41.67;;;19.58;;
23614;SDS011;11985;49.404;7.734;2023-03-20T02:52:54;45.75;;;18.63;;
23614;SDS011;11985;49.404;7.734;2023-03-20T02:58:01;41.97;;;18.73;;
23614;SDS011;11985;49.404;7.734;2023-03-20T03:03:11;40.30;;;18.80;;
23614;SDS011;11985;49.404;7.734;2023-03-20T03:08:19;43.05;;;19.90;;
23614;SDS011;11985;49.404;7.734;2023-03-20T03:13:26;47.10;;;20.20;;
23614;SDS011;11985;49.404;7.734;2023-03-20T03:18:29;51.22;;;22.50;;
23614;SDS011;11985;49.404;7.734;2023-03-20T03:23:39;52.78;;;22.67;;
23614;SDS011;11985;49.404;7.734;2023-03-20T03:28:47;57.38;;;23.33;;
23614;SDS011;11985;49.404;7.734;2023-03-20T03:33:53;56.03;;;23.17;;
23614;SDS011;11985;49.404;7.734;2023-03-20T03:38:59;56.05;;;24.20;;
23614;SDS011;11985;49.404;7.734;2023-03-20T03:44:08;59.58;;;23.92;;
23614;SDS011;11985;49.404;7.734;2023-03-20T03:49:14;66.47;;;25.50;;
23614;SDS011;11985;49.404;7.734;2023-03-20T03:54:22;59.45;;;24.15;;
23614;SDS011;11985;49.404;7.734;2023-03-20T03:59:29;59.10;;;25.05;;
23614;SDS011;11985;49.404;7.734;2023-03-20T04:04:37;74.43;;;28.15;;
23614;SDS011;11985;49.404;7.734;2023-03-20T04:09:45;72.82;;;26.95;;
23614;SDS011;11985;49.404;7.734;2023-03-20T04:14:47;73.25;;;25.98;;
23614;SDS011;11985;49.404;7.734;2023-03-20T04:19:49;84.18;;;29.33;;
23614;SDS011;11985;49.404;7.734;2023-03-20T04:24:51;87.15;;;29.40;;
23614;SDS011;11985;49.404;7.734;2023-03-20T04:29:53;86.38;;;29.33;;
23614;SDS011;11985;49.404;7.734;2023-03-20T04:34:55;84.78;;;28.85;;
23614;SDS011;11985;49.404;7.734;2023-03-20T04:39:57;75.00;;;27.77;;
23614;SDS011;11985;49.404;7.734;2023-03-20T04:44:59;77.22;;;29.30;;
23614;SDS011;11985;49.404;7.734;2023-03-20T04:50:00;85.75;;;28.10;;
23614;SDS011;11985;49.404;7.734;2023-03-20T04:55:04;78.13;;;26.85;;
23614;SDS011;11985;49.404;7.734;2023-03-20T05:00:07;72.82;;;27.70;;
23614;SDS011;11985;49.404;7.734;2023-03-20T05:05:10;75.80;;;27.80;;
23614;SDS011;11985;49.404;7.734;2023-03-20T05:10:13;84.03;;;26.15;;
23614;SDS011;11985;49.404;7.734;2023-03-20T05:15:14;83.38;;;27.15;;
23614;SDS011;11985;49.404;7.734;2023-03-20T05:20:15;75.10;;;26.63;;
23614;SDS011;11985;49.404;7.734;2023-03-20T05:25:18;79.43;;;26.45;;
23614;SDS011;11985;49.404;7.734;2023-03-20T05:30:21;86.40;;;26.80;;
23614;SDS011;11985;49.404;7.734;2023-03-20T05:35:23;100.53;;;28.08;;
23614;SDS011;11985;49.404;7.734;2023-03-20T05:40:26;100.78;;;29.23;;
23614;SDS011;11985;49.404;7.734;2023-03-20T05:45:27;121.13;;;29.27;;
23614;SDS011;11985;49.404;7.734;2023-03-20T05:50:29;72.00;;;26.45;;
23614;SDS011;11985;49.404;7.734;2023-03-20T05:55:32;68.30;;;27.85;;
23614;SDS011;11985;49.404;7.734;2023-03-20T06:00:33;98.97;;;27.55;;
23614;SDS011;11985;49.404;7.734;2023-03-20T06:05:35;92.75;;;29.10;;
23614;SDS011;11985;49.404;7.734;2023-03-20T06:10:37;84.10;;;28.33;;
23614;SDS011;11985;49.404;7.734;2023-03-20T06:15:41;153.38;;;29.88;;
23614;SDS011;11985;49.404;7.734;2023-03-20T06:20:43;103.85;;;31.42;;
23614;SDS011;11985;49.404;7.734;2023-03-20T06:25:46;127.47;;;29.95;;
23614;SDS011;11985;49.404;7.734;2023-03-20T06:30:49;126.70;;;29.92;;
23614;SDS011;11985;49.404;7.734;2023-03-20T06:35:52;92.38;;;29.50;;
23614;SDS011;11985;49.404;7.734;2023-03-20T06:40:55;101.35;;;29.95;;
23614;SDS011;11985;49.404;7.734;2023-03-20T06:45:57;95.60;;;28.73;;
23614;SDS011;11985;49.404;7.734;2023-03-20T06:50:58;91.20;;;29.20;;
23614;SDS011;11985;49.404;7.734;2023-03-20T06:56:01;111.22;;;27.10;;
23614;SDS011;11985;49.404;7.734;2023-03-20T07:01:07;79.22;;;28.17;;
23614;SDS011;11985;49.404;7.734;2023-03-20T07:06:09;93.10;;;26.92;;
23614;SDS011;11985;49.404;7.734;2023-03-20T07:11:13;78.20;;;27.77;;
23614;SDS011;11985;49.404;7.734;2023-03-20T07:16:15;77.38;;;28.52;;
23614;SDS011;11985;49.404;7.734;2023-03-20T07:21:18;68.82;;;28.35;;
23614;SDS011;11985;49.404;7.734;2023-03-20T07:26:23;75.25;;;26.27;;
23614;SDS011;11985;49.404;7.734;2023-03-20T07:31:25;64.50;;;25.70;;
23614;SDS011;11985;49.404;7.734;2023-03-20T07:36:30;67.97;;;27.00;;
23614;SDS011;11985;49.404;7.734;2023-03-20T07:41:33;78.70;;;29.73;;
23614;SDS011;11985;49.404;7.734;2023-03-20T07:46:35;76.55;;;30.88;;
23614;SDS011;11985;49.404;7.734;2023-03-20T07:51:36;78.72;;;29.83;;
23614;SDS011;11985;49.404;7.734;2023-03-20T07:56:39;80.47;;;30.90;;
23614;SDS011;11985;49.404;7.734;2023-03-20T08:01:41;80.10;;;30.35;;
23614;SDS011;11985;49.404;7.734;2023-03-20T08:06:43;71.65;;;28.20;;
23614;SDS011;11985;49.404;7.734;2023-03-20T08:11:46;63.05;;;24.30;;
23614;SDS011;11985;49.404;7.734;2023-03-20T08:16:47;62.22;;;24.67;;
23614;SDS011;11985;49.404;7.734;2023-03-20T08:21:49;43.80;;;18.23;;
23614;SDS011;11985;49.404;7.734;2023-03-20T08:26:52;41.80;;;17.25;;
23614;SDS011;11985;49.404;7.734;2023-03-20T08:31:54;38.95;;;15.63;;
23614;SDS011;11985;49.404;7.734;2023-03-20T08:36:56;39.53;;;15.52;;
23614;SDS011;11985;49.404;7.734;2023-03-20T08:41:59;42.08;;;17.40;;
23614;SDS011;11985;49.404;7.734;2023-03-20T08:47:01;37.95;;;16.85;;
23614;SDS011;11985;49.404;7.734;2023-03-20T08:52:02;42.63;;;19.90;;
23614;SDS011;11985;49.404;7.734;2023-03-20T08:57:06;41.45;;;20.00;;
23614;SDS011;11985;49.404;7.734;2023-03-20T09:02:08;46.67;;;20.40;;
23614;SDS011;11985;49.404;7.734;2023-03-20T09:07:11;38.15;;;19.45;;
23614;SDS011;11985;49.404;7.734;2023-03-20T09:12:14;41.75;;;19.23;;
23614;SDS011;11985;49.404;7.734;2023-03-20T09:17:15;42.50;;;19.50;;
23614;SDS011;11985;49.404;7.734;2023-03-20T09:22:17;43.40;;;19.83;;
23614;SDS011;11985;49.404;7.734;2023-03-20T09:27:20;37.05;;;17.55;;
23614;SDS011;11985;49.404;7.734;2023-03-20T09:32:21;29.08;;;13.98;;
23614;SDS011;11985;49.404;7.734;2023-03-20T09:37:23;25.63;;;12.77;;
23614;SDS011;11985;49.404;7.734;2023-03-20T09:42:31;24.67;;;11.13;;
23614;SDS011;11985;49.404;7.734;2023-03-20T09:47:44;20.60;;;10.65;;
23614;SDS011;11985;49.404;7.734;2023-03-20T09:52:54;17.00;;;8.63;;
23614;SDS011;11985;49.404;7.734;2023-03-20T09:58:02;19.38;;;9.23;;
23614;SDS011;11985;49.404;7.734;2023-03-20T10:03:14;12.82;;;8.13;;
23614;SDS011;11985;49.404;7.734;2023-03-20T10:08:20;17.02;;;8.40;;
23614;SDS011;11985;49.404;7.734;2023-03-20T10:13:38;14.57;;;8.10;;
23614;SDS011;11985;49.404;7.734;2023-03-20T10:18:55;10.85;;;6.40;;
23614;SDS011;11985;49.404;7.734;2023-03-20T10:24:02;9.98;;;6.70;;
23614;SDS011;11985;49.404;7.734;2023-03-20T10:29:10;13.18;;;6.32;;
23614;SDS011;11985;49.404;7.734;2023-03-20T10:34:23;13.93;;;6.77;;
23614;SDS011;11985;49.404;7.734;2023-03-20T10:39:38;12.93;;;6.80;;
23614;SDS011;11985;49.404;7.734;2023-03-20T10:44:52;12.13;;;6.70;;
23614;SDS011;11985;49.404;7.734;2023-03-20T10:49:59;12.50;;;6.68;;
23614;SDS011;11985;49.404;7.734;2023-03-20T10:55:03;13.23;;;6.53;;
23614;SDS011;11985;49.404;7.734;2023-03-20T11:00:15;10.82;;;5.75;;
23614;SDS011;11985;49.404;7.734;2023-03-20T11:05:22;13.95;;;5.68;;
23614;SDS011;11985;49.404;7.734;2023-03-20T11:10:30;10.55;;;5.00;;
23614;SDS011;11985;49.404;7.734;2023-03-20T11:15:35;9.75;;;4.95;;
23614;SDS011;11985;49.404;7.734;2023-03-20T11:20:38;7.70;;;4.75;;
23614;SDS011;11985;49.404;7.734;2023-03-20T11:25:47;7.68;;;4.60;;
23614;SDS011;11985;49.404;7.734;2023-03-20T11:30:57;7.78;;;4.35;;
23614;SDS011;11985;49.404;7.734;2023-03-20T11:36:00;8.55;;;4.28;;
23614;SDS011;11985;49.404;7.734;2023-03-20T11:41:03;9.27;;;4.28;;
23614;SDS011;11985;49.404;7.734;2023-03-20T11:46:07;8.18;;;4.15;;
23614;SDS011;11985;49.404;7.734;2023-03-20T11:51:13;7.85;;;3.80;;
23614;SDS011;11985;49.404;7.734;2023-03-20T11:56:20;7.78;;;3.90;;
23614;SDS011;11985;49.404;7.734;2023-03-20T12:01:24;4.93;;;3.00;;
23614;SDS011;11985;49.404;7.734;2023-03-20T12:06:36;6.65;;;3.47;;
23614;SDS011;11985;49.404;7.734;2023-03-20T12:11:44;7.13;;;3.50;;
23614;SDS011;11985;49.404;7.734;2023-03-20T12:16:52;10.13;;;4.13;;
23614;SDS011;11985;49.404;7.734;2023-03-20T12:22:00;6.43;;;3.55;;
23614;SDS011;11985;49.404;7.734;2023-03-20T12:27:14;8.75;;;3.83;;
23614;SDS011;11985;49.404;7.734;2023-03-20T12:32:24;7.45;;;3.80;;
23614;SDS011;11985;49.404;7.734;2023-03-20T12:37:29;6.35;;;3.33;;
23614;SDS011;11985;49.404;7.734;2023-03-20T12:42:35;9.32;;;4.30;;
23614;SDS011;11985;49.404;7.734;2023-03-20T12:47:52;6.80;;;4.03;;
23614;SDS011;11985;49.404;7.734;2023-03-20T12:53:08;8.77;;;4.30;;
23614;SDS011;11985;49.404;7.734;2023-03-20T12:58:22;8.80;;;4.28;;
23614;SDS011;11985;49.404;7.734;2023-03-20T13:03:37;6.38;;;4.00;;
23614;SDS011;11985;49.404;7.734;2023-03-20T13:08:50;11.75;;;3.38;;
23614;SDS011;11985;49.404;7.734;2023-03-20T13:14:08;11.27;;;3.85;;
23614;SDS011;11985;49.404;7.734;2023-03-20T13:19:21;8.32;;;3.72;;
23614;SDS011;11985;49.404;7.734;2023-03-20T13:24:37;8.52;;;3.33;;
23614;SDS011;11985;49.404;7.734;2023-03-20T13:29:46;6.65;;;3.20;;
23614;SDS011;11985;49.404;7.734;2023-03-20T13:34:58;5.97;;;2.90;;
23614;SDS011;11985;49.404;7.734;2023-03-20T13:40:13;5.55;;;3.33;;
23614;SDS011;11985;49.404;7.734;2023-03-20T13:45:24;7.03;;;3.20;;
23614;SDS011;11985;49.404;7.734;2023-03-20T13:50:32;8.45;;;3.33;;
23614;SDS011;11985;49.404;7.734;2023-03-20T13:55:43;9.30;;;4.00;;
23614;SDS011;11985;49.404;7.734;2023-03-20T14:00:53;6.10;;;2.90;;
23614;SDS011;11985;49.404;7.734;2023-03-20T14:06:01;6.70;;;3.22;;
23614;SDS011;11985;49.404;7.734;2023-03-20T14:11:26;7.15;;;3.05;;
23614;SDS011;11985;49.404;7.734;2023-03-20T14:16:34;5.63;;;2.88;;
23614;SDS011;11985;49.404;7.734;2023-03-20T14:21:37;5.40;;;3.05;;
23614;SDS011;11985;49.404;7.734;2023-03-20T14:26:38;8.88;;;3.28;;
23614;SDS011;11985;49.404;7.734;2023-03-20T14:31:42;7.75;;;3.25;;
23614;SDS011;11985;49.404;7.734;2023-03-20T14:36:55;6.28;;;3.05;;
23614;SDS011;11985;49.404;7.734;2023-03-20T14:42:03;6.45;;;3.25;;
23614;SDS011;11985;49.404;7.734;2023-03-20T14:47:20;8.93;;;2.70;;
23614;SDS011;11985;49.404;7.734;2023-03-20T14:52:34;6.68;;;2.67;;
23614;SDS011;11985;49.404;7.734;2023-03-20T14:57:50;5.88;;;3.08;;
23614;SDS011;11985;49.404;7.734;2023-03-20T15:02:52;4.88;;;2.42;;
23614;SDS011;11985;49.404;7.734;2023-03-20T15:08:03;5.63;;;2.75;;
23614;SDS011;11985;49.404;7.734;2023-03-20T15:13:07;7.80;;;3.22;;
23614;SDS011;11985;49.404;7.734;2023-03-20T15:18:10;7.78;;;3.10;;
23614;SDS011;11985;49.404;7.734;2023-03-20T15:23:15;5.95;;;2.70;;
23614;SDS011;11985;49.404;7.734;2023-03-20T15:28:18;6.32;;;2.42;;
23614;SDS011;11985;49.404;7.734;2023-03-20T15:33:23;6.18;;;2.20;;
23614;SDS011;11985;49.404;7.734;2023-03-20T15:38:29;4.53;;;2.33;;
23614;SDS011;11985;49.404;7.734;2023-03-20T15:43:34;6.32;;;2.20;;
23614;SDS011;11985;49.404;7.734;2023-03-20T15:48:37;4.15;;;2.33;;
23614;SDS011;11985;49.404;7.734;2023-03-20T15:53:40;4.78;;;2.05;;
23614;SDS011;11985;49.404;7.734;2023-03-20T15:58:47;5.90;;;2.42;;
23614;SDS011;11985;49.404;7.734;2023-03-20T16:03:52;11.57;;;4.97;;
23614;SDS011;11985;49.404;7.734;2023-03-20T16:09:00;7.65;;;3.97;;
23614;SDS011;11985;49.404;7.734;2023-03-20T16:14:02;3.95;;;2.30;;
23614;SDS011;11985;49.404;7.734;2023-03-20T16:19:06;6.30;;;2.17;;
23614;SDS011;11985;49.404;7.734;2023-03-20T16:24:13;6.00;;;2.58;;
23614;SDS011;11985;49.404;7.734;2023-03-20T16:29:18;5.32;;;2.08;;
23614;SDS011;11985;49.404;7.734;2023-03-20T16:34:23;4.43;;;2.23;;
23614;SDS011;11985;49.404;7.734;2023-03-20T16:39:32;7.90;;;2.90;;
23614;SDS011;11985;49.404;7.734;2023-03-20T16:44:34;7.50;;;2.13;;
23614;SDS011;11985;49.404;7.734;2023-03-20T16:55:14;8.55;;;1.95;;
23614;SDS011;11985;49.404;7.734;2023-03-20T17:00:19;4.75;;;2.30;;
23614;SDS011;11985;49.404;7.734;2023-03-20T17:05:23;11.20;;;5.85;;
23614;SDS011;11985;49.404;7.734;2023-03-20T17:10:46;5.35;;;2.65;;
23614;SDS011;11985;49.404;7.734;2023-03-20T17:15:50;5.70;;;2.65;;
23614;SDS011;11985;49.404;7.734;2023-03-20T17:20:52;8.20;;;3.47;;
23614;SDS011;11985;49.404;7.734;2023-03-20T17:25:55;7.30;;;2.47;;
23614;SDS011;11985;49.404;7.734;2023-03-20T17:30:56;10.68;;;3.50;;
23614;SDS011;11985;49.404;7.734;2023-03-20T17:35:59;7.85;;;3.08;;
23614;SDS011;11985;49.404;7.734;2023-03-20T17:41:02;9.18;;;2.88;;
23614;SDS011;11985;49.404;7.734;2023-03-20T17:46:04;6.78;;;2.80;;
23614;SDS011;11985;49.404;7.734;2023-03-20T17:51:06;5.40;;;2.60;;
23614;SDS011;11985;49.404;7.734;2023-03-20T17:56:11;6.20;;;2.63;;
23614;SDS011;11985;49.404;7.734;2023-03-20T18:01:14;8.20;;;2.63;;
23614;SDS011;11985;49.404;7.734;2023-03-20T18:06:19;4.72;;;2.45;;
23614;SDS011;11985;49.404;7.734;2023-03-20T18:11:25;10.50;;;2.75;;
23614;SDS011;11985;49.404;7.734;2023-03-20T18:16:27;7.50;;;2.78;;
23614;SDS011;11985;49.404;7.734;2023-03-20T18:21:28;7.75;;;2.88;;
23614;SDS011;11985;49.404;7.734;2023-03-20T18:26:31;5.45;;;2.40;;
23614;SDS011;11985;49.404;7.734;2023-03-20T18:31:33;6.97;;;2.63;;
23614;SDS011;11985;49.404;7.734;2023-03-20T18:36:34;7.80;;;2.72;;
23614;SDS011;11985;49.404;7.734;2023-03-20T18:41:37;6.63;;;2.97;;
23614;SDS011;11985;49.404;7.734;2023-03-20T18:46:39;13.57;;;4.60;;
23614;SDS011;11985;49.404;7.734;2023-03-20T18:51:41;9.25;;;4.63;;
23614;SDS011;11985;49.404;7.734;2023-03-20T18:56:44;10.75;;;3.85;;
23614;SDS011;11985;49.404;7.734;2023-03-20T19:01:48;8.75;;;2.15;;
23614;SDS011;11985;49.404;7.734;2023-03-20T19:06:51;7.90;;;2.45;;
23614;SDS011;11985;49.404;7.734;2023-03-20T19:11:54;5.72;;;2.50;;
23614;SDS011;11985;49.404;7.734;2023-03-20T19:16:56;10.68;;;2.35;;
23614;SDS011;11985;49.404;7.734;2023-03-20T19:21:57;4.28;;;1.90;;
23614;SDS011;11985;49.404;7.734;2023-03-20T19:27:00;6.57;;;2.78;;
23614;SDS011;11985;49.404;7.734;2023-03-20T19:32:02;5.72;;;2.58;;
23614;SDS011;11985;49.404;7.734;2023-03-20T19:37:03;3.92;;;2.70;;
23614;SDS011;11985;49.404;7.734;2023-03-20T19:42:06;6.35;;;3.15;;
23614;SDS011;11985;49.404;7.734;2023-03-20T19:47:08;12.07;;;3.30;;
23614;SDS011;11985;49.404;7.734;2023-03-20T19:52:12;6.82;;;3.22;;
23614;SDS011;11985;49.404;7.734;2023-03-20T19:57:18;7.97;;;2.92;;
23614;SDS011;11985;49.404;7.734;2023-03-20T20:02:20;4.70;;;2.35;;
23614;SDS011;11985;49.404;7.734;2023-03-20T20:07:21;5.22;;;2.20;;
23614;SDS011;11985;49.404;7.734;2023-03-20T20:12:24;6.20;;;2.53;;
23614;SDS011;11985;49.404;7.734;2023-03-20T20:17:26;7.97;;;1.92;;
23614;SDS011;11985;49.404;7.734;2023-03-20T20:22:27;8.15;;;2.30;;
23614;SDS011;11985;49.404;7.734;2023-03-20T20:27:30;7.85;;;2.88;;
23614;SDS011;11985;49.404;7.734;2023-03-20T20:32:33;7.53;;;2.03;;
23614;SDS011;11985;49.404;7.734;2023-03-20T20:37:36;8.63;;;2.20;;
23614;SDS011;11985;49.404;7.734;2023-03-20T20:42:42;6.35;;;1.98;;
23614;SDS011;11985;49.404;7.734;2023-03-20T20:47:46;5.88;;;2.28;;
23614;SDS011;11985;49.404;7.734;2023-03-20T20:52:48;3.63;;;2.42;;
23614;SDS011;11985;49.404;7.734;2023-03-20T20:57:51;13.00;;;2.67;;
23614;SDS011;11985;49.404;7.734;2023-03-20T21:02:55;5.07;;;2.13;;
23614;SDS011;11985;49.404;7.734;2023-03-20T21:07:56;3.53;;;2.10;;
23614;SDS011;11985;49.404;7.734;2023-03-20T21:12:59;4.50;;;2.35;;
23614;SDS011;11985;49.404;7.734;2023-03-20T21:18:01;8.38;;;2.35;;
23614;SDS011;11985;49.404;7.734;2023-03-20T21:23:02;9.20;;;2.40;;
23614;SDS011;11985;49.404;7.734;2023-03-20T21:28:05;6.85;;;2.55;;
23614;SDS011;11985;49.404;7.734;2023-03-20T21:33:07;6.75;;;2.40;;
23614;SDS011;11985;49.404;7.734;2023-03-20T21:38:09;5.82;;;2.40;;
23614;SDS011;11985;49.404;7.734;2023-03-20T21:43:12;6.15;;;2.78;;
23614;SDS011;11985;49.404;7.734;2023-03-20T21:48:14;7.20;;;2.83;;
23614;SDS011;11985;49.404;7.734;2023-03-20T21:53:18;5.47;;;2.47;;
23614;SDS011;11985;49.404;7.734;2023-03-20T21:58:21;7.00;;;2.60;;
23614;SDS011;11985;49.404;7.734;2023-03-20T22:03:23;7.60;;;2.97;;
23614;SDS011;11985;49.404;7.734;2023-03-20T22:08:24;5.07;;;2.67;;
23614;SDS011;11985;49.404;7.734;2023-03-20T22:13:27;6.88;;;3.03;;
23614;SDS011;11985;49.404;7.734;2023-03-20T22:18:29;14.45;;;3.70;;
23614;SDS011;11985;49.404;7.734;2023-03-20T22:23:31;8.45;;;2.80;;
23614;SDS011;11985;49.404;7.734;2023-03-20T22:28:35;5.03;;;2.65;;
23614;SDS011;11985;49.404;7.734;2023-03-20T22:33:37;8.65;;;2.83;;
23614;SDS011;11985;49.404;7.734;2023-03-20T22:38:40;9.40;;;3.08;;
23614;SDS011;11985;49.404;7.734;2023-03-20T22:43:43;5.32;;;2.58;;
23614;SDS011;11985;49.404;7.734;2023-03-20T22:48:45;5.10;;;2.75;;
23614;SDS011;11985;49.404;7.734;2023-03-20T22:53:47;6.32;;;2.60;;
23614;SDS011;11985;49.404;7.734;2023-03-20T22:58:51;6.50;;;3.03;;
23614;SDS011;11985;49.404;7.734;2023-03-20T23:03:53;9.30;;;3.65;;
23614;SDS011;11985;49.404;7.734;2023-03-20T23:08:54;10.65;;;2.85;;
23614;SDS011;11985;49.404;7.734;2023-03-20T23:13:57;12.30;;;3.53;;
23614;SDS011;11985;49.404;7.734;2023-03-20T23:18:59;10.55;;;3.55;;
23614;SDS011;11985;49.404;7.734;2023-03-20T23:24:01;9.32;;;4.07;;
23614;SDS011;11985;49.404;7.734;2023-03-20T23:29:03;8.75;;;3.30;;
23614;SDS011;11985;49.404;7.734;2023-03-20T23:34:05;10.50;;;3.00;;
23614;SDS011;11985;49.404;7.734;2023-03-20T23:39:07;7.07;;;2.97;;
23614;SDS011;11985;49.404;7.734;2023-03-20T23:44:12;4.43;;;2.85;;
23614;SDS011;11985;49.404;7.734;2023-03-20T23:49:14;9.25;;;2.90;;
23614;SDS011;11985;49.404;7.734;2023-03-20T23:54:15;8.80;;;3.10;;
23614;SDS011;11985;49.404;7.734;2023-03-20T23:59:18;8.00;;;2.97;;
